Terminal Aerodrome Forecast
Issued by NWS

Home | Current Version | Previous Version | Text Only | Print | Product List | Glossary On
Versions: 1 2 3 4 5 6 7 8 9 10 11 12 13 14 15 16
000
FTUS41 KPBZ 011300 AAA
TAFBVI
TAF AMD
KBVI 011354Z 0114/0212 VRB02KT 2SM BR OVC003
     FM011500 10005KT 5SM BR BKN020
     FM011700 12005KT P6SM BKN035
     FM012300 14005KT P6SM BKN250=

USA.gov is the U.S. government's official web portal to all federal, state and local government web resources and services.